イスタンブル の空港の天気 - METARとTAF

アタテュルク国際空港(イスタンブル) ( LTBA / IST ) - トルコ イスタンブル
飛行場実況気象(Metar)
観測時間05/10 09:20 EET (05/10 06:20 UTC)
風向・風速東北東 7m/s
視程10km以上
天気現象
なし
気温14℃
湿度59%
気圧1024hPa
METARLTBA 100620Z 07014KT CAVOK 14/06 Q1024 NOSIG RMK RWY23 06014KT
過去の天気等 Google飛行場航空写真 Wunderground天気予報

過去48時間のMETAR

飛行場予報(TAF)
発表時間: 5/10 07:40 EET (5/10 04:40 UTC)
予報対象時間: 10日9時 EET ~ 11日15時 EET
風向・風速北東 6m/s
視程10km以上
なし
10日9時 EET ~ 10日12時 EET に一時的に
全天の4割程度の雲 雲底高度 1070m
10日9時 EET ~ 10日12時 EET に徐々に
風向・風速北東 8m/s 瞬間風速 14m/s
10日18時 EET ~ 10日21時 EET に徐々に
風向・風速北東 6m/s
11日6時 EET ~ 11日9時 EET に一時的に
全天の4割程度の雲 雲底高度 1070m
11日9時 EET ~ 11日12時 EET に徐々に
風向・風速北東 8m/s 瞬間風速 13m/s
TAF LTBA 100440Z 1006/1112 05012KT CAVOK
TEMPO 1006/1009 SCT035
BECMG 1006/1009 05015G28KT
BECMG 1015/1018 05012KT
TEMPO 1103/1106 SCT035
BECMG 1106/1109 05015G25KT